createdAt,value
2023-06-04T00:00:55.484Z,7.22
2023-06-04T00:03:23.940Z,7.20
2023-06-04T00:05:52.326Z,7.17
2023-06-04T00:08:20.974Z,7.15
2023-06-04T00:10:49.313Z,7.12
2023-06-04T00:13:17.659Z,7.08
2023-06-04T00:15:45.965Z,7.08
2023-06-04T00:18:15.871Z,7.04
2023-06-04T00:20:44.421Z,7.00
2023-06-04T00:23:12.763Z,6.95
2023-06-04T00:25:41.058Z,6.90
2023-06-04T00:28:09.385Z,6.87
2023-06-04T00:30:37.727Z,6.83
2023-06-04T00:33:06.391Z,6.81
2023-06-04T00:35:36.432Z,6.77
2023-06-04T00:38:04.748Z,6.76
2023-06-04T00:40:33.031Z,6.75
2023-06-04T00:43:01.339Z,6.70
2023-06-04T00:45:32.434Z,6.67
2023-06-04T00:48:01.446Z,6.67
2023-06-04T00:50:30.017Z,6.63
2023-06-04T00:52:59.760Z,6.59
2023-06-04T00:55:28.136Z,6.55
2023-06-04T00:57:56.543Z,6.53
2023-06-04T01:00:24.919Z,6.51
2023-06-04T01:02:54.904Z,6.47
2023-06-04T01:05:26.928Z,6.45
2023-06-04T01:07:55.226Z,6.42
2023-06-04T01:10:25.133Z,6.42
2023-06-04T01:12:53.513Z,6.45
2023-06-04T01:15:22.118Z,6.42
2023-06-04T01:17:52.724Z,6.38
2023-06-04T01:20:28.202Z,6.32
2023-06-04T01:23:07.979Z,6.31
2023-06-04T01:25:40.331Z,6.30
2023-06-04T01:28:09.155Z,6.30
2023-06-04T01:30:43.796Z,6.32
2023-06-04T01:33:12.517Z,6.26
2023-06-04T01:35:40.968Z,6.23
2023-06-04T01:38:09.327Z,6.22
2023-06-04T01:40:39.057Z,6.16
2023-06-04T01:43:07.984Z,6.15
2023-06-04T01:45:36.364Z,6.11
2023-06-04T01:48:05.308Z,6.07
2023-06-04T01:50:33.685Z,6.07
2023-06-04T01:53:02.030Z,6.05
2023-06-04T01:55:34.644Z,5.99
2023-06-04T01:58:04.864Z,5.96
2023-06-04T02:00:33.421Z,5.88
2023-06-04T02:03:01.883Z,5.85
2023-06-04T02:05:30.304Z,5.86
2023-06-04T02:07:58.641Z,5.82
2023-06-04T02:10:27.906Z,5.80
2023-06-04T02:12:57.480Z,5.78
2023-06-04T02:15:27.838Z,5.77
2023-06-04T02:18:00.774Z,5.69
2023-06-04T02:20:29.337Z,5.67
2023-06-04T02:22:57.828Z,5.64
2023-06-04T02:25:28.556Z,5.59
2023-06-04T02:27:57.712Z,5.56
2023-06-04T02:30:27.454Z,5.59
2023-06-04T02:32:56.216Z,5.56
2023-06-04T02:35:25.928Z,5.55
2023-06-04T02:37:54.454Z,5.51
2023-06-04T02:40:22.806Z,5.50
2023-06-04T02:42:51.216Z,5.47
2023-06-04T02:45:19.560Z,5.45
2023-06-04T02:47:49.460Z,5.37
2023-06-04T02:50:17.824Z,5.37
2023-06-04T02:52:46.625Z,5.34
2023-06-04T02:55:15.145Z,5.31
2023-06-04T02:57:44.450Z,5.30
2023-06-04T03:00:14.477Z,5.28
2023-06-04T03:02:43.618Z,5.28
2023-06-04T03:05:14.202Z,5.28
2023-06-04T03:07:46.095Z,5.26
2023-06-04T03:10:15.026Z,5.26
2023-06-04T03:12:43.310Z,5.18
2023-06-04T03:15:12.172Z,5.17
2023-06-04T03:17:41.284Z,5.19
2023-06-04T03:20:10.641Z,5.18
2023-06-04T03:22:40.812Z,5.21
2023-06-04T03:25:09.735Z,5.20
2023-06-04T03:27:38.187Z,5.19
2023-06-04T03:30:09.195Z,5.21
2023-06-04T03:32:48.756Z,5.21
2023-06-04T03:35:18.226Z,5.23
2023-06-04T03:37:47.914Z,5.27
2023-06-04T03:40:17.017Z,5.31
2023-06-04T03:42:47.198Z,5.35
2023-06-04T03:45:16.820Z,5.39
2023-06-04T03:47:48.190Z,5.42
2023-06-04T03:50:16.972Z,5.45
2023-06-04T03:52:45.386Z,5.48
2023-06-04T03:55:15.232Z,5.50
2023-06-04T03:57:44.372Z,5.53
2023-06-04T04:00:14.894Z,5.58
2023-06-04T04:02:43.470Z,5.65
2023-06-04T04:05:20.071Z,5.71
2023-06-04T04:07:50.472Z,5.77
2023-06-04T04:10:24.032Z,5.87
2023-06-04T04:12:54.881Z,5.93
2023-06-04T04:15:24.319Z,6.00
2023-06-04T04:17:53.891Z,6.06
2023-06-04T04:20:22.594Z,6.14
2023-06-04T04:22:58.559Z,6.23
2023-06-04T04:25:30.033Z,6.29
2023-06-04T04:28:01.802Z,6.41
2023-06-04T04:30:31.596Z,6.52
2023-06-04T04:33:00.249Z,6.63
2023-06-04T04:35:35.705Z,6.75
2023-06-04T04:38:06.142Z,6.86
2023-06-04T04:40:42.174Z,6.98
2023-06-04T04:43:13.197Z,7.10
2023-06-04T04:45:41.565Z,7.23
2023-06-04T04:48:12.275Z,7.36
2023-06-04T04:50:40.600Z,7.53
2023-06-04T04:53:09.323Z,7.67
2023-06-04T04:55:39.587Z,7.87
2023-06-04T04:58:09.777Z,8.03
2023-06-04T05:00:38.673Z,8.18
2023-06-04T05:03:07.169Z,8.34
2023-06-04T05:05:35.902Z,8.51
2023-06-04T05:08:06.748Z,8.68
2023-06-04T05:10:40.694Z,8.84
2023-06-04T05:13:12.363Z,9.04
2023-06-04T05:15:55.484Z,9.27
2023-06-04T05:18:29.918Z,9.48
2023-06-04T05:21:03.703Z,9.67
2023-06-04T05:23:35.672Z,9.85
2023-06-04T05:26:05.519Z,10.05
2023-06-04T05:28:35.719Z,10.25
2023-06-04T05:31:05.832Z,10.45
2023-06-04T05:33:36.389Z,10.62
2023-06-04T05:36:09.906Z,10.85
2023-06-04T05:38:44.849Z,11.07
2023-06-04T05:41:15.675Z,11.27
2023-06-04T05:43:46.053Z,11.51
2023-06-04T05:46:17.738Z,11.70
2023-06-04T05:48:47.258Z,11.89
2023-06-04T05:51:16.694Z,12.02
2023-06-04T05:53:45.967Z,12.20
2023-06-04T05:56:14.393Z,12.41
2023-06-04T05:58:45.196Z,12.63
2023-06-04T06:01:14.592Z,12.83
2023-06-04T06:03:43.366Z,13.20
2023-06-04T06:06:11.885Z,13.49
2023-06-04T06:08:40.921Z,13.78
2023-06-04T06:11:11.323Z,14.03
2023-06-04T06:13:40.218Z,14.23
2023-06-04T06:16:11.934Z,14.27
2023-06-04T06:18:40.863Z,14.40
2023-06-04T06:21:09.694Z,14.56
2023-06-04T06:23:39.000Z,14.71
2023-06-04T06:26:09.389Z,14.95
2023-06-04T06:28:44.465Z,15.21
2023-06-04T06:31:14.990Z,15.42
2023-06-04T06:33:43.596Z,15.55
2023-06-04T06:36:12.707Z,15.44
2023-06-04T06:38:41.354Z,15.58
2023-06-04T06:41:10.026Z,15.82
2023-06-04T06:43:38.525Z,15.93
2023-06-04T06:46:07.316Z,16.17
2023-06-04T06:48:37.271Z,16.15
2023-06-04T06:51:05.994Z,16.12
2023-06-04T06:53:34.459Z,16.30
2023-06-04T06:56:02.828Z,16.67
2023-06-04T06:58:31.171Z,16.90
2023-06-04T07:00:59.975Z,17.02
2023-06-04T07:03:28.689Z,17.18
2023-06-04T07:05:58.603Z,17.08
2023-06-04T07:08:27.012Z,16.88
2023-06-04T07:10:55.476Z,16.95
2023-06-04T07:13:23.971Z,16.96
2023-06-04T07:15:52.292Z,17.01
2023-06-04T07:18:20.888Z,17.21
2023-06-04T07:20:49.194Z,17.35
2023-06-04T07:23:18.927Z,17.55
2023-06-04T07:25:47.297Z,17.59
2023-06-04T07:28:16.291Z,17.62
2023-06-04T07:30:44.651Z,17.72
2023-06-04T07:33:12.924Z,17.95
2023-06-04T07:35:41.235Z,18.09
2023-06-04T07:38:09.530Z,18.22
2023-06-04T07:40:39.304Z,18.27
2023-06-04T07:43:07.891Z,18.39
2023-06-04T07:45:36.523Z,18.61
2023-06-04T07:48:05.041Z,18.70
2023-06-04T07:50:36.102Z,18.65
2023-06-04T07:53:05.995Z,18.47
2023-06-04T07:55:34.733Z,18.61
2023-06-04T07:58:06.337Z,18.68
2023-06-04T08:00:34.973Z,18.63
2023-06-04T08:03:03.349Z,18.81
2023-06-04T08:05:32.297Z,19.01
2023-06-04T08:08:01.307Z,19.20
2023-06-04T08:10:29.593Z,19.44
2023-06-04T08:12:57.885Z,19.46
2023-06-04T08:15:27.564Z,19.39
2023-06-04T08:17:55.896Z,19.18
2023-06-04T08:20:25.930Z,19.07
2023-06-04T08:22:56.252Z,19.10
2023-06-04T08:25:24.570Z,19.25
2023-06-04T08:27:52.940Z,19.34
2023-06-04T08:30:21.409Z,19.51
2023-06-04T08:32:51.423Z,19.45
2023-06-04T08:35:19.991Z,19.57
2023-06-04T08:37:48.817Z,19.58
2023-06-04T08:40:17.164Z,19.70
2023-06-04T08:42:46.554Z,19.89
2023-06-04T08:45:16.462Z,20.08
2023-06-04T08:47:46.738Z,20.23
2023-06-04T08:50:17.158Z,20.33
2023-06-04T08:52:45.473Z,20.33
2023-06-04T08:55:15.039Z,20.38
2023-06-04T08:57:44.498Z,20.34
2023-06-04T09:00:14.187Z,20.53
2023-06-04T09:02:42.942Z,20.72
2023-06-04T09:05:11.741Z,20.88
2023-06-04T09:07:42.140Z,21.13
2023-06-04T09:10:13.853Z,21.12
2023-06-04T09:12:44.494Z,21.25
2023-06-04T09:15:12.847Z,21.44
2023-06-04T09:17:41.907Z,21.44
2023-06-04T09:20:10.906Z,21.70
2023-06-04T09:22:39.531Z,22.24
2023-06-04T09:25:10.988Z,22.10
2023-06-04T09:27:42.690Z,22.39
2023-06-04T09:30:12.325Z,22.44
2023-06-04T09:32:40.914Z,22.51
2023-06-04T09:35:13.921Z,22.72
2023-06-04T09:37:42.408Z,23.20
2023-06-04T09:40:13.015Z,22.71
2023-06-04T09:42:45.879Z,22.55
2023-06-04T09:45:14.418Z,22.81
2023-06-04T09:47:43.875Z,23.24
2023-06-04T09:50:13.071Z,23.51
2023-06-04T09:52:41.959Z,23.30
2023-06-04T09:55:23.293Z,23.48
2023-06-04T09:57:53.000Z,23.88
2023-06-04T10:00:22.352Z,24.13
2023-06-04T10:02:51.010Z,24.19
2023-06-04T10:05:22.818Z,24.21
2023-06-04T10:07:52.961Z,24.40
2023-06-04T10:10:24.674Z,24.51
2023-06-04T10:12:55.940Z,24.50
2023-06-04T10:15:24.239Z,24.70
2023-06-04T10:17:52.617Z,25.04
2023-06-04T10:20:21.727Z,25.47
2023-06-04T10:22:50.002Z,25.23
2023-06-04T10:25:18.384Z,24.89
2023-06-04T10:27:48.247Z,24.98
2023-06-04T10:30:16.651Z,25.56
2023-06-04T10:32:45.166Z,25.47
2023-06-04T10:35:15.551Z,25.47
2023-06-04T10:37:44.309Z,25.34
2023-06-04T10:40:13.236Z,25.95
2023-06-04T10:42:42.697Z,26.00
2023-06-04T10:45:13.367Z,25.95
2023-06-04T10:47:42.448Z,26.03
2023-06-04T10:50:12.327Z,26.38
2023-06-04T10:52:41.198Z,26.76
2023-06-04T10:55:10.610Z,26.19
2023-06-04T10:57:42.778Z,26.18
2023-06-04T11:00:14.008Z,25.92
2023-06-04T11:02:55.104Z,26.10
2023-06-04T11:05:23.600Z,26.16
2023-06-04T11:07:52.103Z,26.09
2023-06-04T11:10:20.461Z,26.42
2023-06-04T11:12:51.570Z,26.57
2023-06-04T11:15:21.531Z,26.01
2023-06-04T11:17:52.862Z,26.20
2023-06-04T11:20:21.716Z,26.15
2023-06-04T11:22:54.365Z,26.39
2023-06-04T11:25:23.498Z,26.09
2023-06-04T11:27:52.357Z,25.83
2023-06-04T11:30:22.154Z,25.64
2023-06-04T11:32:51.568Z,25.91
2023-06-04T11:35:20.098Z,25.89
2023-06-04T11:37:55.847Z,25.66
2023-06-04T11:40:24.300Z,25.42
2023-06-04T11:42:52.662Z,25.37
2023-06-04T11:45:23.512Z,25.29
2023-06-04T11:47:53.852Z,25.24
2023-06-04T11:50:22.342Z,25.08
2023-06-04T11:52:50.656Z,25.20
2023-06-04T11:55:21.949Z,25.28
2023-06-04T11:57:51.164Z,25.42
2023-06-04T12:00:20.493Z,25.38
2023-06-04T12:02:54.804Z,25.47
2023-06-04T12:05:25.193Z,25.30
2023-06-04T12:07:53.665Z,24.84
2023-06-04T12:10:22.091Z,24.64
2023-06-04T12:12:56.702Z,24.54
2023-06-04T12:15:25.190Z,24.65
2023-06-04T12:17:55.500Z,24.53
2023-06-04T12:20:37.400Z,24.47
2023-06-04T12:23:05.956Z,23.98
2023-06-04T12:25:34.629Z,23.59
2023-06-04T12:28:04.149Z,23.76
2023-06-04T12:30:38.843Z,23.87
2023-06-04T12:33:08.660Z,23.36
2023-06-04T12:35:37.489Z,23.18
2023-06-04T12:38:06.516Z,23.12
2023-06-04T12:40:35.413Z,22.88
2023-06-04T12:43:03.773Z,22.61
2023-06-04T12:45:32.100Z,22.35
2023-06-04T12:48:00.549Z,22.28
2023-06-04T12:50:30.314Z,22.25
2023-06-04T12:52:58.908Z,22.15
2023-06-04T12:55:28.356Z,21.86
2023-06-04T12:57:56.970Z,21.85
2023-06-04T13:00:25.292Z,21.75
2023-06-04T13:02:53.703Z,21.71
2023-06-04T13:05:22.083Z,21.65
2023-06-04T13:07:52.703Z,21.65
2023-06-04T13:10:21.722Z,21.63
2023-06-04T13:12:50.470Z,21.87
2023-06-04T13:15:19.057Z,22.03
2023-06-04T13:17:47.388Z,22.05
2023-06-04T13:20:16.101Z,22.04
2023-06-04T13:22:45.191Z,21.97
2023-06-04T13:25:14.988Z,21.91
2023-06-04T13:27:43.339Z,22.00
2023-06-04T13:30:12.673Z,22.07
2023-06-04T13:32:41.180Z,22.14
2023-06-04T13:35:10.371Z,22.31
2023-06-04T13:37:38.683Z,22.17
2023-06-04T13:40:08.706Z,22.07
2023-06-04T13:42:38.596Z,22.00
2023-06-04T13:45:08.124Z,21.98
2023-06-04T13:47:36.923Z,22.09
2023-06-04T13:50:05.809Z,22.30
2023-06-04T13:52:34.083Z,22.49
2023-06-04T13:55:02.424Z,22.81
2023-06-04T13:57:30.796Z,22.85
2023-06-04T14:00:00.519Z,22.92
2023-06-04T14:02:29.194Z,22.88
2023-06-04T14:04:57.555Z,23.07
2023-06-04T14:07:25.970Z,23.26
2023-06-04T14:09:55.973Z,23.22
2023-06-04T14:12:24.553Z,23.41
2023-06-04T14:14:52.906Z,23.60
2023-06-04T14:17:24.075Z,23.58
2023-06-04T14:19:52.403Z,23.75
2023-06-04T14:22:20.736Z,23.91
2023-06-04T14:24:49.022Z,23.73
2023-06-04T14:27:17.309Z,23.57
2023-06-04T14:29:45.980Z,23.53
2023-06-04T14:32:14.258Z,23.73
2023-06-04T14:34:43.977Z,23.85
2023-06-04T14:37:12.378Z,23.86
2023-06-04T14:39:40.700Z,24.15
2023-06-04T14:42:09.106Z,24.41
2023-06-04T14:44:37.441Z,24.30
2023-06-04T14:47:06.435Z,24.28
2023-06-04T14:49:34.733Z,24.32
2023-06-04T14:52:04.740Z,24.26
2023-06-04T14:54:33.095Z,24.14
2023-06-04T14:57:02.205Z,24.30
2023-06-04T14:59:30.789Z,24.39
2023-06-04T15:01:59.332Z,24.34
2023-06-04T15:04:27.711Z,24.22
2023-06-04T15:06:56.038Z,24.17
2023-06-04T15:09:25.727Z,24.05
2023-06-04T15:11:54.325Z,24.14
2023-06-04T15:14:22.726Z,23.95
2023-06-04T15:16:51.126Z,23.87
2023-06-04T15:19:19.428Z,24.02
2023-06-04T15:21:47.788Z,24.20
2023-06-04T15:24:16.319Z,24.10
2023-06-04T15:26:46.157Z,23.75
2023-06-04T15:29:14.486Z,23.73
2023-06-04T15:31:42.753Z,23.69
2023-06-04T15:34:11.130Z,23.88
2023-06-04T15:36:39.775Z,23.92
2023-06-04T15:39:08.556Z,23.70
2023-06-04T15:41:36.902Z,23.53
2023-06-04T15:44:07.581Z,23.20
2023-06-04T15:46:36.026Z,23.14
2023-06-04T15:49:06.982Z,23.38
2023-06-04T15:51:36.466Z,23.47
2023-06-04T15:54:05.644Z,23.56
2023-06-04T15:56:34.069Z,23.64
2023-06-04T15:59:02.414Z,23.36
2023-06-04T16:01:32.216Z,23.54
2023-06-04T16:04:00.585Z,23.65
2023-06-04T16:06:29.276Z,23.53
2023-06-04T16:08:57.589Z,23.73
2023-06-04T16:11:27.138Z,23.54
2023-06-04T16:13:55.609Z,23.40
2023-06-04T16:16:24.061Z,23.58
2023-06-04T16:18:54.284Z,23.37
2023-06-04T16:21:22.980Z,23.27
2023-06-04T16:23:52.445Z,23.57
2023-06-04T16:26:20.872Z,23.66
2023-06-04T16:28:49.187Z,23.86
2023-06-04T16:31:17.593Z,23.79
2023-06-04T16:33:47.527Z,23.73
2023-06-04T16:36:17.315Z,23.63
2023-06-04T16:38:45.645Z,23.44
2023-06-04T16:41:14.597Z,23.35
2023-06-04T16:43:43.011Z,23.63
2023-06-04T16:46:11.654Z,23.60
2023-06-04T16:48:40.389Z,23.64
2023-06-04T16:51:08.720Z,23.59
2023-06-04T16:53:38.514Z,23.54
2023-06-04T16:56:07.160Z,23.24
2023-06-04T16:58:39.211Z,22.99
2023-06-04T17:01:11.466Z,22.71
2023-06-04T17:03:40.075Z,23.00
2023-06-04T17:06:08.733Z,23.10
2023-06-04T17:08:38.643Z,22.91
2023-06-04T17:11:06.942Z,22.77
2023-06-04T17:13:35.224Z,22.51
2023-06-04T17:16:03.878Z,22.57
2023-06-04T17:18:32.190Z,22.26
2023-06-04T17:21:00.770Z,21.96
2023-06-04T17:23:29.168Z,21.99
2023-06-04T17:26:00.671Z,22.03
2023-06-04T17:28:29.515Z,21.94
2023-06-04T17:30:57.914Z,21.79
2023-06-04T17:33:26.230Z,21.56
2023-06-04T17:35:54.566Z,21.46
2023-06-04T17:38:22.885Z,21.43
2023-06-04T17:40:51.248Z,21.18
2023-06-04T17:43:21.398Z,21.04
2023-06-04T17:45:49.713Z,21.00
2023-06-04T17:48:18.033Z,20.79
2023-06-04T17:50:46.497Z,20.71
2023-06-04T17:53:14.808Z,20.36
2023-06-04T17:55:43.111Z,20.29
2023-06-04T17:58:11.744Z,20.16
2023-06-04T18:00:41.465Z,20.00
2023-06-04T18:03:09.937Z,19.68
2023-06-04T18:05:38.351Z,19.35
2023-06-04T18:08:06.778Z,19.15
2023-06-04T18:10:35.778Z,19.03
2023-06-04T18:13:04.693Z,18.89
2023-06-04T18:15:32.980Z,18.74
2023-06-04T18:18:02.748Z,18.65
2023-06-04T18:20:31.086Z,18.50
2023-06-04T18:22:59.444Z,18.33
2023-06-04T18:25:27.784Z,18.23
2023-06-04T18:27:56.232Z,18.11
2023-06-04T18:30:24.576Z,18.02
2023-06-04T18:32:54.905Z,17.98
2023-06-04T18:35:24.721Z,17.83
2023-06-04T18:37:53.024Z,17.69
2023-06-04T18:40:21.597Z,17.63
2023-06-04T18:42:49.893Z,17.57
2023-06-04T18:45:18.312Z,17.51
2023-06-04T18:47:46.707Z,17.37
2023-06-04T18:50:15.146Z,17.24
2023-06-04T18:52:45.246Z,17.12
2023-06-04T18:55:13.561Z,16.98
2023-06-04T18:57:41.932Z,16.88
2023-06-04T19:00:11.528Z,16.77
2023-06-04T19:02:40.041Z,16.66
2023-06-04T19:05:11.337Z,16.59
2023-06-04T19:07:40.856Z,16.47
2023-06-04T19:10:12.130Z,16.33
2023-06-04T19:12:43.341Z,16.21
2023-06-04T19:15:12.297Z,16.09
2023-06-04T19:17:40.879Z,15.95
2023-06-04T19:20:09.885Z,15.87
2023-06-04T19:22:38.602Z,15.80
2023-06-04T19:25:07.621Z,15.71
2023-06-04T19:27:37.380Z,15.61
2023-06-04T19:30:07.134Z,15.49
2023-06-04T19:32:35.759Z,15.36
2023-06-04T19:35:04.098Z,15.20
2023-06-04T19:37:32.492Z,15.09
2023-06-04T19:40:00.805Z,14.95
2023-06-04T19:42:29.168Z,14.79
2023-06-04T19:44:58.976Z,14.65
2023-06-04T19:47:27.760Z,14.54
2023-06-04T19:49:57.024Z,14.40
2023-06-04T19:52:25.962Z,14.25
2023-06-04T19:54:54.369Z,14.17
2023-06-04T19:57:22.899Z,14.11
2023-06-04T19:59:51.941Z,14.01
2023-06-04T20:02:21.735Z,13.88
2023-06-04T20:04:52.232Z,13.78
2023-06-04T20:07:20.985Z,13.69
2023-06-04T20:09:49.357Z,13.61
2023-06-04T20:12:19.496Z,13.50
2023-06-04T20:14:48.232Z,13.40
2023-06-04T20:17:16.528Z,13.31
2023-06-04T20:19:46.390Z,13.24
2023-06-04T20:22:14.718Z,13.12
2023-06-04T20:24:43.830Z,12.99
2023-06-04T20:27:12.237Z,12.89
2023-06-04T20:29:41.017Z,12.82
2023-06-04T20:32:09.332Z,12.72
2023-06-04T20:34:37.676Z,12.64
2023-06-04T20:37:07.545Z,12.58
2023-06-04T20:39:40.326Z,12.50
2023-06-04T20:42:09.065Z,12.38
2023-06-04T20:44:37.365Z,12.30
2023-06-04T20:47:06.478Z,12.20
2023-06-04T20:49:34.631Z,12.10
2023-06-04T20:52:02.779Z,12.03
2023-06-04T20:54:32.263Z,11.96
2023-06-04T20:57:00.985Z,11.87
2023-06-04T20:59:29.137Z,11.77
2023-06-04T21:01:57.432Z,11.70
2023-06-04T21:04:25.638Z,11.60
2023-06-04T21:06:54.026Z,11.49
2023-06-04T21:09:22.657Z,11.42
2023-06-04T21:11:52.430Z,11.35
2023-06-04T21:14:20.716Z,11.31
2023-06-04T21:16:49.079Z,11.28
2023-06-04T21:19:17.411Z,11.23
2023-06-04T21:21:45.734Z,11.16
2023-06-04T21:24:15.334Z,11.09
2023-06-04T21:26:43.644Z,11.04
2023-06-04T21:29:13.357Z,10.98
2023-06-04T21:31:41.691Z,10.90
2023-06-04T21:34:09.961Z,10.82
2023-06-04T21:36:38.639Z,10.75
2023-06-04T21:39:07.253Z,10.70
2023-06-04T21:41:35.586Z,10.63
2023-06-04T21:44:03.918Z,10.57
2023-06-04T21:46:34.008Z,10.50
2023-06-04T21:49:02.457Z,10.46
2023-06-04T21:51:31.115Z,10.40
2023-06-04T21:53:59.401Z,10.33
2023-06-04T21:56:28.260Z,10.26
2023-06-04T21:58:56.662Z,10.22
2023-06-04T22:01:25.407Z,10.18
2023-06-04T22:03:55.643Z,10.13
2023-06-04T22:06:24.249Z,10.03
2023-06-04T22:08:52.590Z,9.98
2023-06-04T22:11:21.362Z,9.93
2023-06-04T22:13:49.806Z,9.88
2023-06-04T22:16:18.121Z,9.82
2023-06-04T22:18:52.753Z,9.76
2023-06-04T22:21:23.469Z,9.69
2023-06-04T22:23:51.812Z,9.64
2023-06-04T22:28:51.358Z,9.55
2023-06-04T22:31:19.896Z,9.52
2023-06-04T22:33:48.955Z,9.48
2023-06-04T22:36:18.245Z,9.48
2023-06-04T22:38:48.065Z,9.46
2023-06-04T22:41:16.459Z,9.43
2023-06-04T22:43:44.735Z,9.40
2023-06-04T22:46:13.422Z,9.37
2023-06-04T22:48:42.094Z,9.35
2023-06-04T22:51:10.639Z,9.29
2023-06-04T22:53:39.171Z,9.27
2023-06-04T22:56:10.444Z,9.22
2023-06-04T22:58:39.919Z,9.18
2023-06-04T23:01:08.664Z,9.14
2023-06-04T23:03:39.293Z,9.11
2023-06-04T23:06:07.679Z,9.08
2023-06-04T23:08:36.151Z,9.07
2023-06-04T23:11:04.459Z,9.03
2023-06-04T23:13:35.068Z,9.04
2023-06-04T23:16:03.444Z,8.98
2023-06-04T23:18:33.511Z,8.94
2023-06-04T23:21:02.084Z,8.91
2023-06-04T23:23:30.398Z,8.89
2023-06-04T23:25:59.489Z,8.89
2023-06-04T23:28:27.809Z,8.86
2023-06-04T23:30:57.582Z,8.80
2023-06-04T23:33:26.935Z,8.78
2023-06-04T23:35:55.334Z,8.77
2023-06-04T23:38:23.748Z,8.74
2023-06-04T23:40:52.323Z,8.70
2023-06-04T23:43:20.810Z,8.67
2023-06-04T23:45:49.454Z,8.63
2023-06-04T23:48:19.184Z,8.62
2023-06-04T23:50:47.475Z,8.59
2023-06-04T23:53:15.814Z,8.56
2023-06-04T23:55:44.575Z,8.59
2023-06-04T23:58:12.976Z,8.57
